This is the latest recevied weather packets stored in our database for station/object DG2MCM-11. If no packets are shown the sender has not sent any weather packets the latest 10 day(s).
| Time | Temp. | Humidity | Pressure | Rain* | Wind** | Luminosity | Snow |
|---|---|---|---|---|---|---|---|
| 1777851523 | 12.78° C | 64% | 1016.6 hPa | 0 mm | - | - | - |
| 1777849117 | 13.89° C | 57% | 1016.4 hPa | 0 mm | - | - | - |
| 1777847914 | 13.89° C | 57% | 1016.5 hPa | 0 mm | - | - | - |
| 1777847313 | 13.89° C | 57% | 1016.2 hPa | 0 mm | - | - | - |
| 1777846711 | 14.44° C | 57% | 1015.9 hPa | 0 mm | - | - | - |
| 1777844906 | 14.44° C | 55% | 1015.7 hPa | 0 mm | - | - | - |
| 1777840698 | 15.56° C | 52% | 1014.9 hPa | 0 mm | - | - | - |
| 1777840096 | 15.56° C | 52% | 1014.9 hPa | 0 mm | - | - | - |
| 1777839494 | 15.56° C | 52% | 1014.8 hPa | 0 mm | - | - | - |
| 1777838892 | 15.56° C | 50% | 1014.7 hPa | 0 mm | - | - | - |
| 1777838290 | 16.11° C | 50% | 1014.4 hPa | 0 mm | - | - | - |
| 1777829873 | 21.67° C | 36% | 1011 hPa | 0 mm | - | - | - |
| 1777828068 | 23.33° C | 32% | 1010.6 hPa | 0 mm | - | - | - |
| 1777827466 | 23.33° C | 31% | 1010.6 hPa | 0 mm | - | - | - |
| 1777826323 | 23.89° C | 32% | 1010.4 hPa | 0 mm | - | - | - |
| 1777824519 | 25° C | 32% | 1010.1 hPa | 0 mm | - | - | - |
| 1777823917 | 25.56° C | 31% | 1009.9 hPa | 0 mm | - | - | - |
| 1777822112 | 26.11° C | 28% | 1009.9 hPa | 0 mm | - | - | - |
| 1777819707 | 26.67° C | 26% | 1010 hPa | 0 mm | - | - | - |
| 1777817903 | 27.22° C | 27% | 1009.9 hPa | 0 mm | - | - | - |
| 1777817301 | 27.78° C | 27% | 1009.8 hPa | 0 mm | - | - | - |
| 1777816699 | 27.22° C | 27% | 1010.1 hPa | 0 mm | - | - | - |
| 1777815496 | 27.22° C | 28% | 1010.2 hPa | 0 mm | - | - | - |
| 1777814894 | 27.22° C | 27% | 1010.3 hPa | 0 mm | - | - | - |
| 1777814293 | 27.22° C | 26% | 1010.4 hPa | 0 mm | - | - | - |
* Rain latest hour (hover to see other rain measurements)
** Current wind speed in m/s (hover to see current wind gust speed)